Time;durP1;ratioP1;P1;durP2;ratioP2;P2;SDS_P1;SDS_P2;PMS_P1;PMS_P2;Temp;Humidity;BMP_temperature;BMP_pressure;BME280_temperature;BME280_humidity;BME280_pressure;Samples;Min_cycle;Max_cycle;Signal;HPM_P1;HPM_P2
2023/08/01 00:00:31;;;;;;;4.50;1.90;;;;;;;20.40;89.26;65125.50;5071502;28;20208;-51
2023/08/01 00:02:57;;;;;;;6.35;2.00;;;;;;;20.45;89.18;65130.47;5071239;28;20594;-50
2023/08/01 00:05:23;;;;;;;2.55;1.67;;;;;;;20.47;89.16;65137.81;5071259;28;20197;-51
2023/08/01 00:07:49;;;;;;;3.50;1.50;;;;;;;20.48;89.45;65136.91;5071730;28;20787;-51
2023/08/01 00:10:16;;;;;;;2.10;1.60;;;;;;;20.55;88.95;65144.63;5071542;28;20197;-51
2023/08/01 00:12:42;;;;;;;1.58;1.40;;;;;;;20.43;89.08;65130.81;5071159;28;20212;-52
2023/08/01 00:15:08;;;;;;;3.42;1.70;;;;;;;20.48;88.56;65136.91;5071129;28;20578;-52
2023/08/01 00:17:34;;;;;;;2.67;1.95;;;;;;;20.45;89.02;65136.16;5071114;28;20707;-50
2023/08/01 00:20:02;;;;;;;2.25;1.83;;;;;;;20.37;88.74;65122.19;5071069;28;20204;-50
2023/08/01 00:22:27;;;;;;;1.77;1.58;;;;;;;20.41;88.67;65131.19;5071392;28;20216;-51
2023/08/01 00:24:53;;;;;;;2.28;2.05;;;;;;;20.38;88.97;65125.84;5070991;28;20199;-51
2023/08/01 00:27:18;;;;;;;2.53;1.65;;;;;;;20.35;89.12;65122.53;5071495;28;20590;-51
2023/08/01 00:29:45;;;;;;;2.15;1.95;;;;;;;20.36;89.18;65125.66;5070953;28;20590;-51
2023/08/01 00:32:10;;;;;;;3.20;1.70;;;;;;;20.66;88.47;65154.25;5070881;28;20288;-51
2023/08/01 00:34:36;;;;;;;2.92;1.90;;;;;;;20.62;88.40;65151.84;5071006;28;20276;-51
2023/08/01 00:37:02;;;;;;;2.15;1.95;;;;;;;20.82;87.06;65171.38;5070728;28;20216;-51
2023/08/01 00:39:28;;;;;;;2.10;1.80;;;;;;;20.72;88.52;65162.88;5069766;28;20616;-51
2023/08/01 00:41:54;;;;;;;3.25;2.00;;;;;;;20.59;89.51;65148.50;5070394;28;20269;-51
2023/08/01 00:44:19;;;;;;;3.40;1.77;;;;;;;20.62;88.85;65149.28;5069327;28;20655;-51
2023/08/01 00:46:45;;;;;;;2.50;2.03;;;;;;;20.70;88.64;65160.69;5070346;28;20221;-50
2023/08/01 00:49:12;;;;;;;2.15;1.73;;;;;;;20.68;88.77;65158.47;5070553;28;20181;-57
2023/08/01 00:51:37;;;;;;;2.17;1.75;;;;;;;20.60;88.89;65149.63;5052515;28;20220;-51
2023/08/01 00:54:03;;;;;;;4.03;2.03;;;;;;;20.59;88.89;65148.50;5070511;28;20724;-51
2023/08/01 00:56:28;;;;;;;3.58;1.75;;;;;;;20.72;88.45;65160.31;5052362;28;20307;-51
2023/08/01 00:58:54;;;;;;;2.30;1.70;;;;;;;20.89;87.33;65179.66;5070586;28;20258;-52
2023/08/01 01:01:19;;;;;;;1.70;1.50;;;;;;;20.62;88.45;65152.38;5070534;28;20212;-51
2023/08/01 01:03:45;;;;;;;1.80;1.50;;;;;;;20.56;89.02;65145.19;5070451;28;20705;-51
2023/08/01 01:06:21;;;;;;;2.00;1.80;;;;;;;20.50;89.11;65141.13;5070067;28;20607;-51
2023/08/01 01:08:47;;;;;;;1.90;1.80;;;;;;;20.56;89.23;65147.75;5070765;28;20196;-51
2023/08/01 01:11:13;;;;;;;2.90;1.65;;;;;;;20.42;89.60;65130.25;5070383;28;20220;-51
2023/08/01 01:13:39;;;;;;;1.70;1.60;;;;;;;20.37;90.06;65124.19;5070107;28;20698;-54
2023/08/01 01:16:05;;;;;;;2.08;1.67;;;;;;;20.34;90.16;65118.34;5070234;28;20227;-51
2023/08/01 01:18:30;;;;;;;3.17;1.90;;;;;;;20.42;90.46;65127.72;5070200;28;20196;-53
2023/08/01 01:20:56;;;;;;;1.95;1.73;;;;;;;20.33;90.36;65120.34;5070229;28;20216;-50
2023/08/01 01:23:22;;;;;;;3.65;1.80;;;;;;;20.35;89.82;65121.97;5070246;28;20212;-50
2023/08/01 01:25:51;;;;;;;2.45;1.98;;;;;;;20.40;90.37;65125.50;5070149;28;20292;-51
2023/08/01 01:28:17;;;;;;;2.05;1.83;;;;;;;20.46;89.55;65134.16;5070513;28;20690;-52
2023/08/01 01:30:44;;;;;;;1.85;1.63;;;;;;;20.50;88.83;65136.00;5069864;28;20215;-52
2023/08/01 01:33:11;;;;;;;2.80;1.88;;;;;;;20.50;89.65;65136.00;5069985;28;20240;-52
2023/08/01 01:35:36;;;;;;;1.90;1.80;;;;;;;20.54;89.05;65140.44;5070230;28;20701;-56
2023/08/01 01:38:05;;;;;;;2.67;2.00;;;;;;;20.67;88.68;65155.34;5068911;28;20206;-52
2023/08/01 01:40:32;;;;;;;1.83;1.60;;;;;;;20.57;89.15;65148.84;5069904;28;20284;-51
2023/08/01 01:42:59;;;;;;;4.20;1.90;;;;;;;20.61;89.13;65148.16;5069707;28;20223;-51
2023/08/01 01:45:24;;;;;;;1.80;1.70;;;;;;;20.59;89.17;65148.50;5070383;28;20191;-51
2023/08/01 01:47:49;;;;;;;2.08;1.80;;;;;;;20.47;88.21;65132.69;5069855;28;20295;-50
2023/08/01 01:50:15;;;;;;;1.88;1.73;;;;;;;20.52;88.34;65140.78;5051943;28;20279;-51
2023/08/01 01:52:40;;;;;;;1.50;1.40;;;;;;;20.55;88.60;65144.09;5070709;28;20670;-51
2023/08/01 01:55:07;;;;;;;2.85;1.98;;;;;;;20.63;87.49;65153.47;5073426;28;20197;-51
2023/08/01 01:57:33;;;;;;;3.50;1.77;;;;;;;20.61;88.11;65148.16;5073374;28;20232;-50
2023/08/01 01:59:58;;;;;;;3.20;1.90;;;;;;;20.62;88.39;65151.84;5073340;28;20678;-51
2023/08/01 02:02:23;;;;;;;4.72;2.17;;;;;;;20.61;88.92;65150.72;5073709;28;20208;-51
2023/08/01 02:04:50;;;;;;;2.92;2.00;;;;;;;20.54;89.71;65140.97;5073679;28;20328;-50
2023/08/01 02:07:16;;;;;;;4.68;2.50;;;;;;;20.49;90.28;65134.91;5073136;28;20286;-53
2023/08/01 02:09:41;;;;;;;3.22;2.72;;;;;;;20.53;90.42;65139.31;5073099;28;20188;-51
2023/08/01 02:12:09;;;;;;;2.20;2.00;;;;;;;20.53;90.64;65144.44;5073373;28;20308;-50
2023/08/01 02:14:35;;;;;;;6.68;2.47;;;;;;;20.56;89.97;65142.63;5055006;28;20234;-50
2023/08/01 02:17:02;;;;;;;4.45;2.40;;;;;;;20.49;90.78;65134.91;5055118;28;20227;-52
2023/08/01 02:19:27;;;;;;;6.82;3.40;;;;;;;20.30;92.40;65119.56;5073139;28;20189;-53
2023/08/01 02:21:54;;;;;;;2.90;2.70;;;;;;;20.23;92.94;65106.16;5055128;28;20291;-51
2023/08/01 02:24:19;;;;;;;3.00;2.65;;;;;;;20.24;92.83;65107.81;5073294;28;20295;-58
2023/08/01 02:26:44;;;;;;;2.88;2.53;;;;;;;20.39;92.18;65124.41;5054843;28;20670;-52
2023/08/01 02:29:10;;;;;;;3.47;2.80;;;;;;;20.21;93.05;65104.50;5054881;28;20224;-56
2023/08/01 02:31:36;;;;;;;3.97;3.25;;;;;;;20.47;92.04;65135.25;5072671;28;20601;-51
2023/08/01 02:34:01;;;;;;;4.20;3.25;;;;;;;20.35;92.78;65119.41;5038462;28;20651;-51
2023/08/01 02:36:27;;;;;;;5.70;3.90;;;;;;;20.14;94.58;65096.75;5072948;28;20572;-51
2023/08/01 02:38:59;;;;;;;3.58;3.20;;;;;;;20.10;95.37;65095.44;5072726;28;20247;-50
2023/08/01 02:41:24;;;;;;;6.65;3.90;;;;;;;19.94;96.68;65077.22;5072773;28;20251;-51
2023/08/01 02:43:50;;;;;;;3.90;3.58;;;;;;;19.82;98.04;65064.53;5054665;28;20189;-52
2023/08/01 02:46:15;;;;;;;3.45;3.15;;;;;;;19.63;98.83;65043.56;5054423;28;20616;-54
2023/08/01 02:48:41;;;;;;;4.68;3.47;;;;;;;19.43;100.00;65024.03;5054482;28;20592;-52
2023/08/01 02:51:09;;;;;;;5.18;3.50;;;;;;;19.53;99.16;65032.50;5072575;28;20247;-50
2023/08/01 02:53:36;;;;;;;3.50;3.20;;;;;;;19.58;98.11;65040.56;5072657;28;20205;-50
2023/08/01 02:56:01;;;;;;;6.78;2.88;;;;;;;19.55;97.58;65036.72;5072270;28;20703;-50
2023/08/01 02:58:27;;;;;;;4.55;3.10;;;;;;;19.45;98.72;65023.69;5054378;28;20197;-54
2023/08/01 03:00:52;;;;;;;4.82;3.00;;;;;;;19.32;99.36;65014.41;5072292;28;20651;-52
2023/08/01 03:03:18;;;;;;;4.13;3.00;;;;;;;19.35;99.38;65012.63;5072163;28;20548;-52
2023/08/01 03:05:43;;;;;;;6.70;2.80;;;;;;;19.39;99.06;65019.59;5054242;28;20289;-50
2023/08/01 03:08:09;;;;;;;3.67;3.33;;;;;;;19.39;99.04;65016.50;5072146;28;20697;-52
2023/08/01 03:10:35;;;;;;;3.80;3.08;;;;;;;19.40;99.46;65015.03;5072162;28;20231;-51
2023/08/01 03:13:00;;;;;;;3.25;2.92;;;;;;;19.37;99.55;65017.41;5072543;28;20567;-54
2023/08/01 03:15:27;;;;;;;4.90;2.67;;;;;;;19.33;99.92;65012.97;5071967;28;20283;-52
2023/08/01 03:17:52;;;;;;;3.20;2.90;;;;;;;19.41;99.50;65019.25;5072130;28;20211;-51
2023/08/01 03:20:17;;;;;;;3.97;2.92;;;;;;;19.28;100.00;65005.44;5072285;28;20208;-51
2023/08/01 03:22:43;;;;;;;4.60;3.05;;;;;;;19.25;100.00;65002.09;5072048;28;20612;-51
2023/08/01 03:25:08;;;;;;;4.05;3.53;;;;;;;19.24;100.00;65000.47;5071891;28;20223;-57
2023/08/01 03:27:34;;;;;;;3.75;3.20;;;;;;;19.23;100.00;65002.47;5072003;28;20217;-51
2023/08/01 03:30:01;;;;;;;3.53;3.22;;;;;;;19.26;100.00;65007.78;5071724;28;20201;-51
2023/08/01 03:32:26;;;;;;;5.32;3.22;;;;;;;19.23;100.00;64999.34;5072189;28;20733;-52
2023/08/01 03:34:52;;;;;;;7.82;4.70;;;;;;;19.43;99.90;65018.91;5072215;28;20193;-51
2023/08/01 03:37:17;;;;;;;8.00;3.40;;;;;;;19.36;100.00;65013.72;5070185;28;20328;-51
2023/08/01 03:39:43;;;;;;;5.05;3.13;;;;;;;19.53;99.02;65032.50;5068895;28;20798;-52
2023/08/01 03:42:09;;;;;;;7.00;3.90;;;;;;;19.57;98.67;65034.38;5070502;28;20215;-55
2023/08/01 03:44:35;;;;;;;4.47;3.53;;;;;;;19.21;100.00;65000.25;5071509;28;20334;-53
2023/08/01 03:47:00;;;;;;;8.23;4.78;;;;;;;19.07;100.00;64981.69;5071857;28;20205;-55
2023/08/01 03:49:26;;;;;;;7.15;4.78;;;;;;;19.23;100.00;64999.34;5071980;28;20273;-53
2023/08/01 03:51:52;;;;;;;6.15;4.57;;;;;;;19.42;100.00;65019.78;5071718;28;20686;-54
2023/08/01 03:54:17;;;;;;;6.80;5.13;;;;;;;19.13;100.00;64990.88;5071774;28;20204;-53
2023/08/01 03:56:44;;;;;;;7.18;5.22;;;;;;;19.41;100.00;65019.25;5071448;28;20605;-53
2023/08/01 03:59:14;;;;;;;7.63;5.57;;;;;;;19.50;100.00;65029.19;5071350;28;20211;-52
2023/08/01 04:01:40;;;;;;;7.15;5.57;;;;;;;19.22;100.00;64998.81;5071350;28;20224;-53
2023/08/01 04:04:06;;;;;;;6.57;4.70;;;;;;;18.98;100.00;64974.31;5071207;28;20207;-58
2023/08/01 04:06:32;;;;;;;6.30;5.22;;;;;;;19.27;100.00;65001.22;5071442;28;20702;-54
2023/08/01 04:08:57;;;;;;;7.50;5.47;;;;;;;19.32;100.00;65011.28;5071173;28;20289;-54
2023/08/01 04:11:23;;;;;;;6.15;5.30;;;;;;;19.00;100.00;64976.53;5071506;28;20694;-53
2023/08/01 04:13:48;;;;;;;9.90;7.65;;;;;;;18.90;100.00;64966.06;5071489;28;20253;-53
2023/08/01 04:16:14;;;;;;;7.82;7.10;;;;;;;18.82;100.00;64959.78;5070173;28;20311;-53
2023/08/01 04:18:39;;;;;;;10.02;7.88;;;;;;;19.09;100.00;64983.91;5071232;28;20580;-53
2023/08/01 04:21:06;;;;;;;6.72;5.90;;;;;;;19.29;100.00;65006.53;5070841;28;20267;-53
2023/08/01 04:23:31;;;;;;;6.90;6.20;;;;;;;19.28;100.00;65008.00;5071075;28;20219;-52
2023/08/01 04:25:58;;;;;;;7.55;6.32;;;;;;;19.06;100.00;64983.72;5070741;28;20760;-58
2023/08/01 04:28:23;;;;;;;7.47;6.35;;;;;;;18.78;100.00;64949.69;5071017;28;20288;-53
2023/08/01 04:30:50;;;;;;;7.05;5.95;;;;;;;18.69;100.00;64939.75;5070720;28;20600;-54
2023/08/01 04:33:16;;;;;;;6.15;4.95;;;;;;;18.97;100.00;64973.22;5070769;28;20201;-53
2023/08/01 04:35:42;;;;;;;10.25;5.43;;;;;;;19.13;100.00;64986.31;5052779;28;20251;-54
2023/08/01 04:38:08;;;;;;;7.95;5.70;;;;;;;19.29;100.00;65005.97;5070820;28;20675;-52
2023/08/01 04:40:34;;;;;;;7.28;5.72;;;;;;;19.15;100.00;64993.06;5070719;28;20220;-53
2023/08/01 04:43:01;;;;;;;5.43;4.93;;;;;;;19.15;100.00;64987.97;5071073;28;20675;-58
2023/08/01 04:45:27;;;;;;;8.45;5.60;;;;;;;18.98;100.00;64969.75;5070660;28;20181;-53
2023/08/01 04:47:53;;;;;;;6.70;5.20;;;;;;;19.09;100.00;64986.44;5070786;28;20216;-53
2023/08/01 04:50:18;;;;;;;6.80;5.25;;;;;;;19.02;100.00;64979.28;5052686;28;20623;-61
2023/08/01 04:52:44;;;;;;;7.47;5.68;;;;;;;18.95;100.00;64971.00;5070422;28;20773;-60
2023/08/01 04:55:10;;;;;;;5.57;4.63;;;;;;;19.05;100.00;64980.03;5069164;28;20215;-56
2023/08/01 04:57:35;;;;;;;7.75;5.30;;;;;;;19.01;100.00;64975.06;5070440;28;20216;-54
2023/08/01 05:00:02;;;;;;;6.72;4.90;;;;;;;18.99;100.00;64975.41;5052528;28;20237;-55
2023/08/01 05:02:27;;;;;;;8.00;5.40;;;;;;;19.05;100.00;64982.59;5070259;28;20236;-53
2023/08/01 05:04:52;;;;;;;6.50;4.72;;;;;;;18.99;100.00;64973.41;5070297;28;20236;-54
2023/08/01 05:07:18;;;;;;;5.28;4.78;;;;;;;19.14;100.00;64989.41;5070288;28;20270;-57
2023/08/01 05:09:43;;;;;;;5.55;4.97;;;;;;;19.40;100.00;65017.59;5070778;28;20192;-54
2023/08/01 05:12:09;;;;;;;7.60;4.70;;;;;;;19.34;100.00;65008.41;5070668;28;20224;-53
2023/08/01 05:14:34;;;;;;;4.85;4.35;;;;;;;19.27;100.00;65006.31;5070190;28;20254;-53
2023/08/01 05:17:00;;;;;;;10.77;4.57;;;;;;;19.41;100.00;65019.25;5070324;28;20650;-52
2023/08/01 05:19:26;;;;;;;6.47;3.75;;;;;;;19.44;100.00;65022.56;5070313;28;20284;-53
2023/08/01 05:21:51;;;;;;;5.53;4.80;;;;;;;19.53;96.75;65032.50;5070403;28;20213;-53
2023/08/01 05:24:16;;;;;;;4.22;3.65;;;;;;;19.37;93.55;65017.41;5070076;28;20244;-53
2023/08/01 05:26:42;;;;;;;4.65;3.08;;;;;;;19.41;92.11;65018.69;5069887;28;20224;-55
2023/08/01 05:29:08;;;;;;;4.75;2.80;;;;;;;19.33;92.42;65009.84;5070361;28;20200;-53
2023/08/01 05:31:33;;;;;;;6.70;3.25;;;;;;;19.57;92.40;65036.94;5069956;28;20220;-53
2023/08/01 05:33:59;;;;;;;3.72;3.10;;;;;;;19.76;90.83;65059.91;5052059;28;20581;-53
2023/08/01 05:36:24;;;;;;;6.00;3.25;;;;;;;19.83;90.21;65065.06;5070113;28;20225;-53
2023/08/01 05:38:50;;;;;;;7.60;3.65;;;;;;;19.52;91.52;65028.28;5070475;28;20696;-53
2023/08/01 05:41:15;;;;;;;5.80;3.40;;;;;;;19.64;91.76;65044.09;5070524;28;20213;-53
2023/08/01 05:43:41;;;;;;;6.82;3.47;;;;;;;19.80;91.43;65064.31;5069862;28;20751;-53
2023/08/01 05:46:06;;;;;;;5.13;3.78;;;;;;;19.93;91.40;65074.13;5035359;28;20311;-56
2023/08/01 05:48:31;;;;;;;3.58;3.25;;;;;;;20.15;90.66;65100.44;5068963;28;20187;-57
2023/08/01 05:50:58;;;;;;;6.32;4.05;;;;;;;20.02;89.52;65084.06;5070049;28;20581;-55
2023/08/01 05:53:23;;;;;;;4.57;3.67;;;;;;;19.96;87.99;65082.53;5069724;28;20705;-56
2023/08/01 05:55:49;;;;;;;4.82;3.60;;;;;;;19.90;88.77;65070.25;5069655;28;20225;-57
2023/08/01 05:58:15;;;;;;;5.88;3.65;;;;;;;19.91;89.05;65077.03;5069939;28;20228;-62
2023/08/01 06:00:41;;;;;;;5.10;3.85;;;;;;;19.91;88.67;65074.47;5069966;28;20208;-56
2023/08/01 06:03:06;;;;;;;5.75;3.92;;;;;;;20.00;87.69;65084.41;5051808;28;20712;-54
2023/08/01 06:05:32;;;;;;;4.90;3.83;;;;;;;20.09;86.86;65093.78;5069657;28;20578;-53
2023/08/01 06:07:57;;;;;;;6.68;3.45;;;;;;;20.32;84.70;65116.66;5070133;28;20196;-55
2023/08/01 06:10:23;;;;;;;5.82;3.90;;;;;;;20.46;84.04;65134.16;5070209;28;20678;-55
2023/08/01 06:12:49;;;;;;;3.28;2.90;;;;;;;20.58;82.24;65147.41;5069610;28;20641;-52
2023/08/01 06:15:14;;;;;;;4.93;3.45;;;;;;;20.42;82.00;65132.81;5069384;28;20338;-58
2023/08/01 06:17:40;;;;;;;3.90;3.50;;;;;;;20.49;82.92;65137.44;5069331;28;20288;-54
2023/08/01 06:20:06;;;;;;;5.78;3.83;;;;;;;20.50;81.35;65136.00;5051572;28;20216;-53
2023/08/01 06:22:32;;;;;;;8.57;3.58;;;;;;;20.81;78.95;65172.81;5069672;28;20213;-54
2023/08/01 06:24:57;;;;;;;5.15;2.95;;;;;;;20.67;80.29;65157.91;5069525;28;20192;-52
2023/08/01 06:27:23;;;;;;;6.00;3.20;;;;;;;20.80;80.75;65169.16;5069490;28;20690;-54
2023/08/01 06:29:49;;;;;;;5.13;3.70;;;;;;;20.86;80.37;65175.78;5069488;28;20274;-53
2023/08/01 06:32:15;;;;;;;5.60;3.42;;;;;;;20.89;79.35;65179.09;5069379;28;20695;-59
2023/08/01 06:34:40;;;;;;;7.72;4.03;;;;;;;21.08;79.15;65200.13;5069436;28;20295;-58
2023/08/01 06:37:06;;;;;;;7.85;4.30;;;;;;;21.15;79.40;65210.44;5069366;28;20690;-51
2023/08/01 06:39:32;;;;;;;4.72;3.80;;;;;;;21.30;78.52;65224.47;5071144;28;20197;-52
2023/08/01 06:41:59;;;;;;;4.57;3.30;;;;;;;21.14;76.42;65209.34;5072891;28;20216;-52
2023/08/01 06:44:24;;;;;;;4.15;3.42;;;;;;;21.07;77.60;65201.59;5072593;28;20205;-54
2023/08/01 06:46:50;;;;;;;4.20;3.13;;;;;;;21.42;76.14;65240.31;5072626;28;20228;-53
2023/08/01 06:49:16;;;;;;;6.38;3.63;;;;;;;21.62;75.64;65259.84;5072610;28;20696;-50
2023/08/01 06:51:42;;;;;;;6.85;4.20;;;;;;;21.70;75.19;65270.72;5072539;28;20244;-51
2023/08/01 06:54:08;;;;;;;10.38;4.32;;;;;;;21.61;75.81;65258.75;5055141;28;20232;-52
2023/08/01 06:56:33;;;;;;;10.55;8.00;;;;;;;21.64;75.65;65262.06;5054610;28;20659;-52
2023/08/01 06:59:05;;;;;;;6.85;4.78;;;;;;;21.94;75.48;65296.75;5072420;28;20200;-54
2023/08/01 07:01:32;;;;;;;5.22;3.40;;;;;;;21.94;74.34;65294.72;5072365;28;20702;-52
2023/08/01 07:03:58;;;;;;;4.53;3.50;;;;;;;21.91;73.09;65296.00;5072522;28;20211;-52
2023/08/01 07:06:24;;;;;;;9.45;4.05;;;;;;;21.95;73.48;65295.28;5072775;28;20212;-53
2023/08/01 07:08:50;;;;;;;7.05;3.75;;;;;;;22.28;72.88;65334.38;5072273;28;20266;-56
2023/08/01 07:11:15;;;;;;;7.32;3.88;;;;;;;22.34;72.52;65341.56;5072697;28;20213;-51
2023/08/01 07:13:41;;;;;;;5.13;3.53;;;;;;;22.36;72.57;65343.25;5072264;28;20197;-51
2023/08/01 07:16:07;;;;;;;6.88;3.35;;;;;;;22.67;69.46;65374.44;5071828;28;20232;-53
2023/08/01 07:18:32;;;;;;;5.50;3.97;;;;;;;22.81;67.87;65390.50;5072417;28;20173;-52
2023/08/01 07:21:02;;;;;;;5.93;4.18;;;;;;;22.73;68.22;65381.09;5072105;28;20690;-53
2023/08/01 07:23:28;;;;;;;4.97;3.97;;;;;;;22.85;67.67;65394.38;5071185;28;20199;-52
2023/08/01 07:25:54;;;;;;;7.93;4.30;;;;;;;22.85;66.90;65397.50;5071958;28;20212;-51
2023/08/01 07:28:20;;;;;;;4.82;3.58;;;;;;;22.84;65.90;65393.84;5054201;28;20594;-52
2023/08/01 07:30:46;;;;;;;8.10;3.63;;;;;;;22.53;67.11;65362.03;5071745;28;20208;-54
2023/08/01 07:33:12;;;;;;;6.43;3.55;;;;;;;22.53;66.83;65362.03;5070728;28;20342;-53
2023/08/01 07:35:38;;;;;;;8.50;3.90;;;;;;;22.46;67.39;65354.31;5071712;28;20723;-56
2023/08/01 07:38:04;;;;;;;4.70;3.58;;;;;;;22.47;66.75;65352.84;5070623;28;20201;-51
2023/08/01 07:40:30;;;;;;;6.70;3.95;;;;;;;22.84;65.54;65393.84;5071890;28;20214;-51
2023/08/01 07:42:56;;;;;;;5.85;3.47;;;;;;;22.71;65.45;65378.88;5071561;28;20213;-52
2023/08/01 07:45:22;;;;;;;3.92;3.10;;;;;;;23.00;65.61;65411.00;5071529;28;20200;-50
2023/08/01 07:47:47;;;;;;;6.38;3.30;;;;;;;23.44;65.57;65459.75;5071386;28;20749;-51
2023/08/01 07:50:13;;;;;;;5.20;3.80;;;;;;;23.69;65.72;65489.47;5070410;28;20311;-51
2023/08/01 07:52:39;;;;;;;6.95;3.72;;;;;;;23.72;63.78;65490.22;5071747;28;20673;-56
2023/08/01 07:55:12;;;;;;;4.50;3.13;;;;;;;24.25;61.63;65548.44;5071767;28;20215;-52
2023/08/01 07:57:37;;;;;;;5.85;4.18;;;;;;;24.29;59.95;65553.44;5071655;28;20221;-52
2023/08/01 08:00:22;;;;;;;3.67;3.20;;;;;;;24.27;60.37;65551.22;5071593;28;20663;-52
2023/08/01 08:02:47;;;;;;;4.10;3.53;;;;;;;24.19;61.26;65537.22;5071440;28;20205;-51
2023/08/01 08:05:13;;;;;;;8.77;4.03;;;;;;;24.42;60.13;65567.84;5053625;28;20204;-51
2023/08/01 08:07:39;;;;;;;4.07;3.70;;;;;;;24.61;58.87;65585.78;5071829;28;20244;-52
2023/08/01 08:10:05;;;;;;;4.93;3.30;;;;;;;24.82;58.96;65609.13;5071164;28;20530;-52
2023/08/01 08:12:32;;;;;;;5.90;3.38;;;;;;;25.06;59.28;65637.75;5071646;28;20211;-51
2023/08/01 08:14:57;;;;;;;5.32;3.20;;;;;;;25.21;57.76;65654.97;5069874;28;20560;-52
2023/08/01 08:17:23;;;;;;;5.78;3.70;;;;;;;24.80;56.98;65604.88;5071435;28;20216;-51
2023/08/01 08:19:48;;;;;;;6.00;3.50;;;;;;;24.74;56.48;65602.81;5071128;28;20574;-52
2023/08/01 08:22:14;;;;;;;5.70;3.17;;;;;;;25.05;56.21;65636.66;5071329;28;20220;-51
2023/08/01 08:24:40;;;;;;;7.75;3.38;;;;;;;25.32;55.91;65666.63;5053424;28;20244;-52
2023/08/01 08:27:06;;;;;;;4.65;3.30;;;;;;;25.62;54.80;65697.34;5070955;28;20209;-59
2023/08/01 08:29:32;;;;;;;7.88;3.30;;;;;;;25.52;54.71;65688.84;5071178;28;20203;-58
2023/08/01 08:31:58;;;;;;;3.90;2.95;;;;;;;25.51;53.93;65690.31;5070879;28;20209;-51
2023/08/01 08:34:24;;;;;;;5.47;3.10;;;;;;;25.56;54.71;65693.28;5071508;28;20216;-51
2023/08/01 08:36:50;;;;;;;4.13;3.53;;;;;;;25.50;54.14;65684.59;5053086;28;20216;-53
2023/08/01 08:39:16;;;;;;;5.82;3.60;;;;;;;25.81;54.95;65721.03;5070989;28;20686;-52
2023/08/01 08:41:52;;;;;;;3.80;3.25;;;;;;;25.94;53.41;65732.88;5070965;28;20212;-52
2023/08/01 08:44:20;;;;;;;4.65;3.40;;;;;;;25.68;52.76;65709.19;5071124;28;20249;-53
2023/08/01 08:46:53;;;;;;;8.07;3.00;;;;;;;25.24;53.17;65655.72;5069622;28;20209;-51
2023/08/01 08:49:21;;;;;;;4.05;2.97;;;;;;;25.37;53.13;65667.00;5070923;28;20196;-53
2023/08/01 08:51:47;;;;;;;3.70;3.40;;;;;;;25.22;53.03;65656.09;5070660;28;20200;-52
2023/08/01 08:54:15;;;;;;;5.50;3.30;;;;;;;25.52;52.04;65686.81;5071049;28;20250;-52
2023/08/01 08:56:41;;;;;;;6.22;3.15;;;;;;;25.74;51.65;65710.69;5070312;28;20216;-51
2023/08/01 08:59:10;;;;;;;5.32;2.95;;;;;;;26.00;54.51;65742.13;5052618;28;20258;-52
2023/08/01 09:01:37;;;;;;;4.50;2.70;;;;;;;26.12;53.68;65752.34;5069809;28;20707;-52
2023/08/01 09:04:03;;;;;;;4.47;3.03;;;;;;;25.91;52.58;65732.16;5070921;28;20208;-52
2023/08/01 09:06:50;;;;;;;3.28;2.97;;;;;;;26.06;51.02;65751.38;5070556;28;20208;-54
2023/08/01 09:09:16;;;;;;;3.88;2.90;;;;;;;25.91;52.71;65729.00;5051704;28;20217;-51
2023/08/01 09:11:47;;;;;;;3.45;2.72;;;;;;;26.36;50.56;65782.13;5070296;28;20291;-54
2023/08/01 09:14:13;;;;;;;4.03;2.75;;;;;;;26.26;50.54;65768.44;5070646;28;20238;-52
2023/08/01 09:16:44;;;;;;;5.47;3.17;;;;;;;26.10;51.06;65750.13;5070241;28;20209;-52
2023/08/01 09:19:12;;;;;;;3.20;2.78;;;;;;;26.37;49.88;65780.69;5070241;28;20674;-53
2023/08/01 09:21:39;;;;;;;4.65;3.47;;;;;;;27.06;49.80;65856.81;5070586;28;20204;-51
2023/08/01 09:24:12;;;;;;;5.68;3.20;;;;;;;27.36;49.31;65889.63;5070776;28;20193;-52
2023/08/01 09:26:40;;;;;;;9.32;2.80;;;;;;;27.55;48.58;65910.75;5070551;28;20220;-52
2023/08/01 09:29:06;;;;;;;7.90;3.38;;;;;;;27.88;46.94;65947.44;5035954;28;20805;-50
2023/08/01 09:31:34;;;;;;;3.03;2.55;;;;;;;27.94;46.71;65956.72;5069917;28;20243;-51
2023/08/01 09:34:03;;;;;;;4.68;3.20;;;;;;;28.09;47.55;65970.84;5068971;28;20719;-51
2023/08/01 09:36:29;;;;;;;8.45;3.45;;;;;;;28.26;45.28;65991.22;5070005;28;20232;-52
2023/08/01 09:39:04;;;;;;;5.30;3.40;;;;;;;28.12;44.59;65973.59;5069427;28;20188;-54
2023/08/01 09:41:31;;;;;;;5.75;3.75;;;;;;;28.35;45.91;66001.78;5050482;28;20465;-53
2023/08/01 09:43:57;;;;;;;4.72;3.03;;;;;;;28.56;45.19;66024.63;5070323;28;20193;-53
2023/08/01 09:46:23;;;;;;;4.60;3.00;;;;;;;28.71;45.60;66038.72;5069747;28;20243;-52
2023/08/01 09:48:49;;;;;;;3.65;3.25;;;;;;;28.96;45.97;66069.72;5069652;28;20719;-53
2023/08/01 09:51:17;;;;;;;3.90;3.22;;;;;;;29.09;43.75;66081.03;5069623;28;20220;-54
2023/08/01 09:53:56;;;;;;;6.05;3.25;;;;;;;29.24;43.05;66095.16;5069968;28;20193;-54
2023/08/01 09:56:28;;;;;;;6.28;3.30;;;;;;;29.02;42.12;66075.84;5069684;28;20303;-53
2023/08/01 09:58:55;;;;;;;4.20;3.63;;;;;;;28.73;43.47;66044.09;5069546;28;20192;-52
2023/08/01 10:01:23;;;;;;;3.78;3.00;;;;;;;29.15;43.62;66087.19;5068329;28;20216;-53
2023/08/01 10:03:51;;;;;;;7.40;3.63;;;;;;;29.21;44.28;66096.47;5069779;28;20248;-54
2023/08/01 10:06:27;;;;;;;4.63;3.08;;;;;;;29.41;43.01;66119.28;5069857;28;20285;-53
2023/08/01 10:08:53;;;;;;;5.25;3.92;;;;;;;29.78;43.22;66157.38;5069715;28;20189;-53
2023/08/01 10:11:21;;;;;;;4.15;3.00;;;;;;;30.06;42.95;66185.41;5069735;28;20215;-54
2023/08/01 10:13:47;;;;;;;6.32;3.67;;;;;;;30.10;40.93;66192.47;5070931;28;20197;-54
2023/08/01 10:16:14;;;;;;;4.18;3.67;;;;;;;30.01;41.28;66180.41;5054605;28;20217;-52
2023/08/01 10:18:40;;;;;;;4.90;3.63;;;;;;;29.57;40.45;66137.09;5073101;28;20209;-57
2023/08/01 10:21:11;;;;;;;7.40;3.67;;;;;;;29.38;41.60;66115.38;5073166;28;20224;-57
2023/08/01 10:23:37;;;;;;;3.83;3.35;;;;;;;29.96;42.29;66179.47;5055044;28;20196;-55
2023/08/01 10:26:07;;;;;;;5.00;3.75;;;;;;;30.34;40.88;66219.25;5072945;28;20219;-52
2023/08/01 10:28:32;;;;;;;4.53;3.85;;;;;;;30.54;40.52;66244.16;5072892;28;20204;-52
2023/08/01 10:31:12;;;;;;;7.63;3.50;;;;;;;30.67;41.66;66258.63;5072990;28;20208;-53
2023/08/01 10:33:40;;;;;;;4.63;3.30;;;;;;;31.03;40.85;66296.19;5073428;28;20212;-54
2023/08/01 10:36:17;;;;;;;6.20;3.40;;;;;;;31.37;39.02;66330.97;5072764;28;20212;-59
2023/08/01 10:38:59;;;;;;;7.43;4.30;;;;;;;30.70;40.00;66258.81;5071761;28;20200;-58
2023/08/01 10:41:30;;;;;;;5.75;3.65;;;;;;;31.29;39.14;66324.63;5072971;28;20733;-53
2023/08/01 10:44:13;;;;;;;4.78;3.70;;;;;;;31.83;38.42;66382.28;5072965;28;20691;-53
2023/08/01 10:46:55;;;;;;;6.03;3.67;;;;;;;30.16;39.72;66199.16;5072546;28;20220;-57
2023/08/01 10:49:33;;;;;;;3.75;3.45;;;;;;;30.18;39.66;66201.41;5072435;28;20204;-53
2023/08/01 10:51:58;;;;;;;6.35;3.63;;;;;;;29.56;40.66;66133.41;5072672;28;20713;-57
2023/08/01 10:54:25;;;;;;;4.68;3.17;;;;;;;30.35;40.07;66220.34;5072696;28;20196;-52
2023/08/01 10:56:54;;;;;;;5.65;3.35;;;;;;;30.38;39.00;66224.25;5072341;28;20736;-56
2023/08/01 10:59:21;;;;;;;3.85;3.50;;;;;;;30.63;37.96;66251.56;5072344;28;20262;-53
2023/08/01 11:01:51;;;;;;;6.90;3.58;;;;;;;29.86;38.20;66166.28;5072371;28;20691;-53
2023/08/01 11:04:22;;;;;;;4.85;3.40;;;;;;;29.64;38.77;66144.91;5072223;28;20203;-52
2023/08/01 11:06:53;;;;;;;5.43;3.35;;;;;;;30.23;37.82;66207.53;5072241;28;20209;-54
2023/08/01 11:09:20;;;;;;;5.78;3.47;;;;;;;30.57;37.75;66245.44;5072349;28;20228;-52
2023/08/01 11:11:49;;;;;;;5.85;3.45;;;;;;;31.02;37.50;66292.47;5072532;28;20211;-53
2023/08/01 11:14:16;;;;;;;3.50;3.20;;;;;;;30.71;37.03;66257.88;5054112;28;20697;-53
2023/08/01 11:16:44;;;;;;;4.78;3.47;;;;;;;31.47;37.09;66341.56;5072094;28;20290;-53
2023/08/01 11:19:29;;;;;;;6.43;3.70;;;;;;;31.79;37.50;66379.88;5071916;28;20197;-52
2023/08/01 11:21:59;;;;;;;4.85;3.90;;;;;;;32.15;37.07;66417.47;5072152;28;20756;-53
2023/08/01 11:24:26;;;;;;;4.78;3.72;;;;;;;32.48;37.07;66456.94;5071667;28;20690;-52
2023/08/01 11:26:53;;;;;;;5.65;3.95;;;;;;;32.94;35.45;66505.13;5071711;28;20225;-53
2023/08/01 11:29:20;;;;;;;7.60;5.10;;;;;;;33.10;35.23;66523.03;5053954;28;20197;-53